Odessa, Delaware
Current Conditions -  °F | °C
As of 1:51 AM on Thursday 23 Oct 2014 (Local Time) from KILG Reporting Station
Overcast Overcast  
Wind Chill: 52°   Ceiling: 4900
Heat Index: 52°   Visibility: 10mi
Dew Point: 47°   Wind: 18mph
Humidity: 83%   Direction: 320°NW
Pressure: 29.79"   Gusts: NA
Location:  39.46°N, 75.66°W
Report Text: KILG 230551Z 32016KT 10SM BKN049 OVC070 11/08 A2979 RMK AO2 RAE20 SLP087 P0000 60000 T01110083 10122 20111 56016
Loading
Personal Weather Stations






























Interactive Weather Map
Tropical Storm Tracking
New forecast layout! Learn more

10-Day Weather Forecast

Advertisements
Track Severe Weather on mobile